Map

Track Data

SID SEASON NUMBER BASIN SUBBASIN NAME ISO_TIME NATURE LAT LON WMO_WIND WMO_PRES WMO_AGENCY TRACK_TYPE DIST2LAND LANDFALL IFLAG USA_AGENCY USA_ATCF_ID USA_LAT USA_LON USA_RECORD USA_STATUS USA_WIND USA_PRES USA_SSHS USA_R34_NE USA_R34_SE USA_R34_SW USA_R34_NW USA_R50_NE USA_R50_SE USA_R50_SW USA_R50_NW USA_R64_NE USA_R64_SE USA_R64_SW USA_R64_NW USA_POCI USA_ROCI USA_RMW USA_EYE TOKYO_LAT TOKYO_LON TOKYO_GRADE TOKYO_WIND TOKYO_PRES TOKYO_R50_DIR TOKYO_R50_LONG TOKYO_R50_SHORT TOKYO_R30_DIR TOKYO_R30_LONG TOKYO_R30_SHORT TOKYO_LAND CMA_LAT CMA_LON CMA_CAT CMA_WIND CMA_PRES HKO_LAT HKO_LON HKO_CAT HKO_WIND HKO_PRES NEWDELHI_LAT NEWDELHI_LON NEWDELHI_GRADE NEWDELHI_WIND NEWDELHI_PRES NEWDELHI_CI NEWDELHI_DP NEWDELHI_POCI REUNION_LAT REUNION_LON REUNION_TYPE REUNION_WIND REUNION_PRES REUNION_TNUM REUNION_CI REUNION_RMW REUNION_R34_NE REUNION_R34_SE REUNION_R34_SW REUNION_R34_NW REUNION_R50_NE REUNION_R50_SE REUNION_R50_SW REUNION_R50_NW REUNION_R64_NE REUNION_R64_SE REUNION_R64_SW REUNION_R64_NW BOM_LAT BOM_LON BOM_TYPE BOM_WIND BOM_PRES BOM_TNUM BOM_CI BOM_RMW BOM_R34_NE BOM_R34_SE BOM_R34_SW BOM_R34_NW BOM_R50_NE BOM_R50_SE BOM_R50_SW BOM_R50_NW BOM_R64_NE BOM_R64_SE BOM_R64_SW BOM_R64_NW BOM_ROCI BOM_POCI BOM_EYE BOM_POS_METHOD BOM_PRES_METHOD NADI_LAT NADI_LON NADI_CAT NADI_WIND NADI_PRES WELLINGTON_LAT WELLINGTON_LON WELLINGTON_WIND WELLINGTON_PRES DS824_LAT DS824_LON DS824_STAGE DS824_WIND DS824_PRES TD9636_LAT TD9636_LON TD9636_STAGE TD9636_WIND TD9636_PRES TD9635_LAT TD9635_LON TD9635_WIND TD9635_PRES TD9635_ROCI NEUMANN_LAT NEUMANN_LON NEUMANN_CLASS NEUMANN_WIND NEUMANN_PRES MLC_LAT MLC_LON MLC_CLASS MLC_WIND MLC_PRES USA_GUST BOM_GUST BOM_GUST_PER REUNION_GUST REUNION_GUST_PER USA_SEAHGT USA_SEARAD_NE USA_SEARAD_SE USA_SEARAD_SW USA_SEARAD_NW STORM_SPEED STORM_DIR
1978074S11068 1978 23 SI MM MARYLOU 1978-03-15 00:00:00 TS -10.5000 68.0000 20 1003 reunion main 1540 1540 _____O______O_ -1 -10.5000 68.0000 2 20 1003 1.50000 1.50000 -10.5000 68.0000 TC 25 1003 5 90
1978074S11068 1978 23 SI MM MARYLOU 1978-03-15 03:00:00 TS -10.5000 68.2500 main 1563 1563 _____P______P_ -1 -10.5000 68.2500 2 -10.5000 68.2500 TC 30 14 111
1978074S11068 1978 23 SI MM MARYLOU 1978-03-15 06:00:00 TS -11.0000 69.3333 reunion main 1605 1605 O____O___OO_O_ jtwc_sh SH261978 -12.0000 71.0000 -1 -10.5000 68.5000 99 9.90000 -12.0000 71.0000 TC 25 -12.0000 71.0000 7 -10.5000 68.5000 TC 35 15 113
1978074S11068 1978 23 SI MM MARYLOU 1978-03-15 09:00:00 TS -11.0777 69.6504 main 1631 1631 P____P___PP_P_ SH261978 -11.8400 70.8475 -1 -10.5000 68.7500 99 -11.8400 70.8475 TC 25 -11.8641 70.8577 7 -10.5000 68.7500 TC 37 6 104
1978074S11068 1978 23 SI MM MARYLOU 1978-03-15 12:00:00 TS -11.1410 69.9022 reunion main 1648 1641 O____O___OP_O_ jtwc_sh SH261978 -11.7000 70.7000 -1 -10.5000 69.0000 99 9.90000 -11.7000 70.7000 TC 25 -11.7326 70.7124 7 -10.5000 69.0000 TC 40 4 102
1978074S11068 1978 23 SI MM MARYLOU 1978-03-15 15:00:00 TS -11.1589 70.0352 main 1650 1650 P____P___PP_P_ SH261978 -11.5925 70.5575 -1 -10.5000 69.2500 99 -11.5925 70.5575 TC 30 -11.6097 70.5609 7 -10.5000 69.2500 TC 42 1 73
1978074S11068 1978 23 SI MM MARYLOU 1978-03-15 18:00:00 TS -11.1000 70.0400 reunion main 1657 1657 O____O___OO_O_ jtwc_sh SH261978 -11.5000 70.4000 -1 -10.5000 69.5000 99 9.90000 -11.5000 70.4000 TC 35 -11.5000 70.4000 2 -10.5000 69.5000 TC 45 1 0
1978074S11068 1978 23 SI MM MARYLOU 1978-03-15 21:00:00 TS -11.0263 70.0343 main 1664 1664 P____P___PP_P_ SH261978 -11.3925 70.2075 -1 -10.4700 69.7651 99 -11.3925 70.2075 TC 35 -11.4065 70.2266 2 -10.4700 69.7651 TC 40 1 345
1978074S11068 1978 23 SI MM MARYLOU 1978-03-16 00:00:00 TS -10.9855 70.0075 28 997 reunion main 1664 1664 O____O___OP_O_ jtwc_sh SH261978 -11.3000 70.0000 -1 -10.5000 70.0000 2 28 997 2.50000 2.50000 -11.3000 70.0000 TC 35 -11.3274 70.0376 2 -10.5000 70.0000 TC 35 997 1 275
1978074S11068 1978 23 SI MM MARYLOU 1978-03-16 03:00:00 TS -11.0199 69.9669 main 1664 1648 P____P___PP_P_ SH261978 -11.2425 69.8075 -1 -10.6775 70.1949 2 -11.2425 69.8075 TC 35 -11.2596 69.8297 2 -10.6775 70.1949 TC 40 2 233
1978074S11068 1978 23 SI MM MARYLOU 1978-03-16 06:00:00 TS -11.0800 69.8800 reunion main 1648 1631 O____O___OO_O_ jtwc_sh SH261978 -11.2000 69.6000 -1 -10.9000 70.3000 99 9.90000 -11.2000 69.6000 TC 35 -11.2000 69.6000 2 -10.9000 70.3000 TC 45 2 249
1978074S11068 1978 23 SI MM MARYLOU 1978-03-16 09:00:00 TS -11.1069 69.7374 main 1631 1615 P____P___PP_P_ SH261978 -11.1500 69.3650 -1 -11.0499 70.3175 99 -11.1500 69.3650 TC 35 -11.1348 69.3222 2 -11.0499 70.3175 TC 47 4 261
1978074S11068 1978 23 SI MM MARYLOU 1978-03-16 12:00:00 TS -11.1355 69.5255 reunion main 1615 1591 O____O___OP_O_ jtwc_sh SH261978 -11.1000 69.1000 -1 -11.2000 70.2000 99 9.90000 -11.1000 69.1000 TC 35 -11.0777 69.0275 2 -11.2000 70.2000 TC 50 5 261
1978074S11068 1978 23 SI MM MARYLOU 1978-03-16 15:00:00 TS -11.1804 69.2378 main 1582 1566 P____P___PP_P_ SH261978 -11.0425 68.7850 -1 -11.3926 69.9375 99 -11.0425 68.7850 TC 35 -11.0317 68.7440 2 -11.3926 69.9375 TC 52 6 260
1978074S11068 1978 23 SI MM MARYLOU 1978-03-16 18:00:00 TS -11.2400 68.9400 reunion main 1558 1534 O____O___OO_O_ jtwc_sh SH261978 -11.0000 68.5000 -1 -11.6000 69.6000 99 9.90000 -11.0000 68.5000 TC 35 -11.0000 68.5000 2 -11.6000 69.6000 TC 55 5 255
1978074S11068 1978 23 SI MM MARYLOU 1978-03-16 21:00:00 TS -11.3174 68.7179 main 1534 1510 P____P___PP_P_ SH261978 -10.9925 68.3200 -1 -11.8225 69.2925 99 -10.9925 68.3200 TC 35 -10.9569 68.3643 2 -11.8225 69.2925 TC 50 4 250
1978074S11068 1978 23 SI MM MARYLOU 1978-03-17 00:00:00 TS -11.3864 68.5330 36 991 reunion main 1510 1502 O____O___OP_O_ jtwc_sh SH261978 -11.0000 68.2000 -1 -12.0000 69.0000 3 36 991 3.00000 3.00000 -11.0000 68.2000 TC 35 -10.9321 68.2648 2 -12.0000 69.0000 TC 45 991 3 254
1978074S11068 1978 23 SI MM MARYLOU 1978-03-17 03:00:00 TS -11.4142 68.3775 main 1502 1486 P____P___PP_P_ SH261978 -10.9849 68.1225 -1 -12.0800 68.7424 3 -10.9849 68.1225 TC 35 -10.9413 68.1579 2 -12.0800 68.7424 TC 47 3 261
1978074S11068 1978 23 SI MM MARYLOU 1978-03-17 06:00:00 TS -11.4400 68.2000 reunion main 1486 1454 O____O___OO_O_ jtwc_sh SH261978 -11.0000 68.0000 -1 -12.1000 68.5000 99 9.90000 -11.0000 68.0000 TC 35 -11.0000 68.0000 2 -12.1000 68.5000 TC 50 4 261
1978074S11068 1978 23 SI MM MARYLOU 1978-03-17 09:00:00 TS -11.4851 67.9326 main 1454 1422 P____P___PP_P_ SH261978 -11.0625 67.7374 -1 -12.1000 68.2500 99 -11.0625 67.7374 TC 35 -11.1007 67.6881 2 -12.1000 68.2500 TC 47 6 257
1978074S11068 1978 23 SI MM MARYLOU 1978-03-17 12:00:00 TS -11.5706 67.6256 reunion main 1422 1391 O____O___OP_O_ jtwc_sh SH261978 -11.2000 67.4000 -1 -12.1000 68.0000 99 9.90000 -11.2000 67.4000 TC 35 -11.2531 67.3279 2 -12.1000 68.0000 TC 45 7 249
1978074S11068 1978 23 SI MM MARYLOU 1978-03-17 15:00:00 TS -11.7158 67.3068 main 1391 1352 P____P___PP_P_ SH261978 -11.4276 67.0276 -1 -12.1350 67.7500 99 -11.4276 67.0276 TC 35 -11.4538 66.9788 2 -12.1350 67.7500 TC 45 7 241
1978074S11068 1978 23 SI MM MARYLOU 1978-03-17 18:00:00 TS -11.9000 67.0200 reunion main 1352 1321 O____O___OO_O_ jtwc_sh SH261978 -11.7000 66.7000 -1 -12.2000 67.5000 99 9.90000 -11.7000 66.7000 TC 35 -11.7000 66.7000 2 -12.2000 67.5000 TC 45 6 235
1978074S11068 1978 23 SI MM MARYLOU 1978-03-17 21:00:00 TS -12.0636 66.8064 main 1321 1297 P____P___PP_P_ SH261978 -11.9274 66.4900 -1 -12.2549 67.2648 99 -11.9274 66.4900 TC 35 -11.9532 66.5225 2 -12.2549 67.2648 TC 40 5 223
1978074S11068 1978 23 SI MM MARYLOU 1978-03-18 00:00:00 TS -12.2904 66.6456 28 997 reunion main 1289 1258 O____O___OP_O_ jtwc_sh SH261978 -12.2000 66.4000 -1 -12.4000 67.0000 3 28 997 2.50000 2.50000 -12.2000 66.4000 TC 35 -12.2522 66.4281 2 -12.4000 67.0000 TC 35 997 6 208
1978074S11068 1978 23 SI MM MARYLOU 1978-03-18 03:00:00 TS -12.6240 66.4970 main 1258 1220 P____P___PP_P_ SH261978 -12.5625 66.3976 -1 -12.6976 66.6352 3 -12.5625 66.3976 TC 35 -12.6001 66.4196 2 -12.6976 66.6352 TC 37 8 196
1978074S11068 1978 23 SI MM MARYLOU 1978-03-18 06:00:00 TS -13.0400 66.4200 reunion main 1220 1184 O____O___OO_O_ jtwc_sh SH261978 -13.0000 66.5000 -1 -13.1000 66.3000 99 9.90000 -13.0000 66.5000 TC 35 -13.0000 66.5000 2 -13.1000 66.3000 TC 40 9 184
1978074S11068 1978 23 SI MM MARYLOU 1978-03-18 09:00:00 TS -13.4935 66.4334 main 1184 1157 P____P___PP_P_ SH261978 -13.4850 66.6625 -1 -13.5199 66.0975 99 -13.4850 66.6625 TC 35 -13.4578 66.6472 2 -13.5199 66.0975 TC 37 10 173
1978074S11068 1978 23 SI MM MARYLOU 1978-03-18 12:00:00 TS -13.9925 66.5359 reunion main 1157 1139 O____O___OP_O_ jtwc_sh SH261978 -14.0000 66.9000 -1 -14.0000 66.0000 99 9.90000 -14.0000 66.9000 TC 35 -13.9625 66.8797 2 -14.0000 66.0000 TC 35 11 166
1978074S11068 1978 23 SI MM MARYLOU 1978-03-18 15:00:00 TS -14.5202 66.6964 main 1142 1129 P____P___PP_P_ SH261978 -14.5075 67.1776 -1 -14.5500 65.9774 99 -14.5075 67.1776 TC 35 -14.4860 67.1724 2 -14.5500 65.9774 TC 32 11 157
1978074S11068 1978 23 SI MM MARYLOU 1978-03-18 18:00:00 TS -15.0333 67.0000 reunion main 1138 1133 O____O___OO_O_ jtwc_sh SH261978 -15.0000 67.5000 -1 -15.1000 66.0000 99 9.90000 -15.0000 67.5000 TC 35 -15.0000 67.5000 2 -15.1000 66.0000 TC 30 12 146
1978074S11068 1978 23 SI MM MARYLOU 1978-03-18 21:00:00 TS -15.4932 67.3834 main 1148 1143 P____P___PP_P_ SH261978 -15.4575 67.8426 -1 -15.5750 66.0076 99 -15.4575 67.8426 TC 30 -15.4829 67.8409 2 -15.5750 66.0076 TC 27 12 139
1978074S11068 1978 23 SI MM MARYLOU 1978-03-19 00:00:00 TS -15.9285 67.7970 reunion main 1165 1160 O____O___OP_O_ jtwc_sh SH261978 -15.9000 68.2000 -1 -16.0000 66.0000 6 9.90000 -15.9000 68.2000 TC 25 -15.9378 68.1891 2 -16.0000 66.0000 TC 25 14 128
1978074S11068 1978 23 SI MM MARYLOU 1978-03-19 03:00:00 TS -16.3563 68.5491 main 1210 1210 P________PP___ SH261978 -16.3476 68.5522 -1 6 -16.3476 68.5522 TC 25 -16.3738 68.5428 2 TC 14 129
1978074S11068 1978 23 SI MM MARYLOU 1978-03-19 06:00:00 TS -16.8000 68.9000 main 1233 O________OO___ jtwc_sh SH261978 -16.8000 68.9000 -1 -16.8000 68.9000 TC 25 -16.8000 68.9000 1 11 143

About IBTrACS Database

This database is a web-friendly format of International Best Track Archive for Climate Stewardship (IBTrACS), a global best track data archive curated by NOAA dating back to 1842.

Updated: 2021-12-08